Time;durP1;ratioP1;P1;durP2;ratioP2;P2;SDS_P1;SDS_P2;PMS_P1;PMS_P2;Temp;Humidity;BMP_temperature;BMP_pressure;BME280_temperature;BME280_humidity;BME280_pressure;Samples;Min_cycle;Max_cycle;Signal;HPM_P1;HPM_P2
2022/12/05 00:01:55;;;;;;;62.38;32.80;;;;;;;1.23;100.00;101765.41;5053853;28;20507;-81
2022/12/05 00:04:20;;;;;;;65.22;33.45;;;;;;;1.24;100.00;101765.41;5051351;28;20041;-81
2022/12/05 00:06:45;;;;;;;63.13;33.40;;;;;;;1.28;100.00;101777.25;5052723;28;20021;-83
2022/12/05 00:09:13;;;;;;;61.45;32.65;;;;;;;1.33;100.00;101792.47;5052876;28;20057;-78
2022/12/05 00:11:41;;;;;;;61.03;33.28;;;;;;;1.34;100.00;101789.06;5052663;28;20055;-84
2022/12/05 00:14:08;;;;;;;62.55;33.53;;;;;;;1.17;100.00;101760.38;5052705;28;20036;-79
2022/12/05 00:16:35;;;;;;;69.90;34.33;;;;;;;1.38;100.00;101793.28;5052996;28;20048;-75
2022/12/05 00:19:03;;;;;;;65.38;34.05;;;;;;;1.38;100.00;101788.19;5052551;28;20028;-77
2022/12/05 00:21:32;;;;;;;62.80;34.70;;;;;;;1.36;100.00;101787.31;5052416;28;20051;-75
2022/12/05 00:23:59;;;;;;;66.57;34.33;;;;;;;1.38;100.00;101783.09;5052644;28;20033;-81
2022/12/05 00:26:25;;;;;;;63.45;34.42;;;;;;;1.38;100.00;101778.00;5052438;28;20479;-76
2022/12/05 00:28:51;;;;;;;64.03;34.83;;;;;;;1.40;100.00;101778.81;5051077;28;20060;-76
2022/12/05 00:31:19;;;;;;;67.75;35.60;;;;;;;1.32;100.00;101765.31;5052680;28;20025;-79
2022/12/05 00:33:46;;;;;;;63.38;32.97;;;;;;;1.41;100.00;101773.72;5052733;28;20112;-75
2022/12/05 00:36:16;;;;;;;62.70;32.97;;;;;;;1.43;100.00;101771.16;5052580;28;20036;-78
2022/12/05 00:38:42;;;;;;;65.55;33.15;;;;;;;1.42;100.00;101774.56;5052541;28;20059;-74
2022/12/05 00:41:11;;;;;;;63.40;32.55;;;;;;;1.46;100.00;101772.81;5052326;28;20449;-75
2022/12/05 00:43:36;;;;;;;65.68;34.63;;;;;;;1.26;100.00;101738.22;5052656;28;20139;-75
2022/12/05 00:46:19;;;;;;;63.20;34.40;;;;;;;1.46;100.00;101762.63;5052729;28;20115;-76
2022/12/05 00:48:45;;;;;;;60.25;32.65;;;;;;;1.33;100.00;101739.88;5052546;28;20029;-82
2022/12/05 00:51:16;;;;;;;61.15;34.40;;;;;;;1.53;100.00;101769.34;5051225;28;20492;-74
2022/12/05 00:53:43;;;;;;;63.40;33.08;;;;;;;1.42;100.00;101757.59;5053500;28;20021;-80
2022/12/05 00:56:11;;;;;;;63.22;34.55;;;;;;;1.43;100.00;101745.69;5056343;28;20035;-78
2022/12/05 00:58:37;;;;;;;59.95;33.17;;;;;;;1.47;100.00;101760.06;5056269;28;20025;-74
2022/12/05 01:01:10;;;;;;;62.00;33.40;;;;;;;1.57;100.00;101765.91;5056222;28;20040;-77
2022/12/05 01:03:37;;;;;;;62.75;33.90;;;;;;;1.59;100.00;101772.69;5056273;28;20445;-77
2022/12/05 01:06:04;;;;;;;56.33;32.88;;;;;;;1.41;100.00;101740.63;5056259;28;20025;-81
2022/12/05 01:08:31;;;;;;;64.78;34.35;;;;;;;1.59;100.00;101770.16;5054139;28;20107;-75
2022/12/05 01:10:57;;;;;;;63.67;34.17;;;;;;;1.58;100.00;101757.44;5055945;28;20377;-81
2022/12/05 01:13:24;;;;;;;61.20;33.35;;;;;;;1.62;100.00;101776.91;5056138;28;20377;-75
2022/12/05 01:15:50;;;;;;;59.55;32.88;;;;;;;1.62;100.00;101782.00;5055861;28;20119;-75
2022/12/05 01:18:15;;;;;;;61.55;33.65;;;;;;;1.60;100.00;101776.91;5055882;28;20112;-74
2022/12/05 01:20:41;;;;;;;60.92;34.30;;;;;;;1.52;100.00;101760.03;5055730;28;20120;-74
2022/12/05 01:23:07;;;;;;;62.72;33.92;;;;;;;1.63;100.00;101781.13;5055428;28;20098;-75
2022/12/05 01:25:33;;;;;;;60.00;32.83;;;;;;;1.63;100.00;101781.97;5055890;28;20029;-81
2022/12/05 01:27:58;;;;;;;62.30;34.00;;;;;;;1.64;100.00;101780.25;5055651;28;20055;-77
2022/12/05 01:30:24;;;;;;;61.40;34.13;;;;;;;1.65;100.00;101785.34;5055847;28;20526;-81
2022/12/05 01:32:50;;;;;;;61.90;33.72;;;;;;;1.47;100.00;101756.69;5055533;28;20020;-74
2022/12/05 01:35:15;;;;;;;61.22;34.55;;;;;;;1.58;100.00;101775.25;5055431;28;20037;-77
2022/12/05 01:37:41;;;;;;;62.67;35.75;;;;;;;1.66;100.00;101793.81;5055125;28;20021;-81
2022/12/05 01:40:07;;;;;;;65.05;34.53;;;;;;;1.60;100.00;101786.25;5055730;28;20414;-75
2022/12/05 01:42:33;;;;;;;60.30;32.55;;;;;;;1.68;100.00;101797.22;5055635;28;20025;-77
2022/12/05 01:45:04;;;;;;;63.85;34.65;;;;;;;1.62;100.00;101782.81;5055458;28;20051;-80
2022/12/05 01:47:31;;;;;;;;;;;;;;;1.72;100.00;101797.16;5056085;28;20431;-75
2022/12/05 01:49:58;;;;;;;59.67;32.60;;;;;;;1.71;100.00;101795.47;5055738;28;19919;-76
2022/12/05 01:52:26;;;;;;;59.70;33.65;;;;;;;1.69;100.00;101802.28;5055170;28;20031;-75
2022/12/05 01:54:55;;;;;;;59.75;33.85;;;;;;;1.74;100.00;101802.22;5054997;28;20123;-78
2022/12/05 01:57:22;;;;;;;59.03;33.33;;;;;;;1.62;100.00;101784.53;5055335;28;20025;-75
2022/12/05 01:59:50;;;;;;;62.00;34.42;;;;;;;1.72;100.00;101807.34;5055085;28;20028;-74
2022/12/05 02:02:16;;;;;;;62.25;34.92;;;;;;;1.65;100.00;101795.50;5055186;28;20487;-77
2022/12/05 02:04:56;;;;;;;62.63;33.08;;;;;;;1.75;100.00;101813.25;5054648;28;20056;-76
2022/12/05 02:07:21;;;;;;;60.13;33.10;;;;;;;1.72;100.00;101806.50;5054899;28;20488;-76
2022/12/05 02:09:49;;;;;;;58.50;34.08;;;;;;;1.70;100.00;101798.88;5054804;28;20025;-85
2022/12/05 02:12:17;;;;;;;63.08;35.33;;;;;;;1.54;100.00;101776.97;5054853;28;20111;-75
2022/12/05 02:15:12;;;;;;;63.30;35.67;;;;;;;1.62;100.00;101787.91;5054827;28;20083;-84
2022/12/05 02:17:43;;;;;;;67.30;34.83;;;;;;;1.77;100.00;101816.59;5054800;28;20029;-81
2022/12/05 02:20:25;;;;;;;61.95;33.58;;;;;;;1.79;100.00;101800.47;5054660;28;20090;-83
2022/12/05 02:23:18;;;;;;;59.88;33.78;;;;;;;1.79;100.00;101805.56;5054846;28;20377;-81
2022/12/05 02:25:57;;;;;;;59.47;33.22;;;;;;;1.78;100.00;101806.44;5054670;28;20036;-84
2022/12/05 02:28:44;;;;;;;61.35;33.75;;;;;;;1.78;100.00;101808.97;5054445;28;20492;-85
2022/12/05 02:31:17;;;;;;;61.30;34.00;;;;;;;1.64;100.00;101781.09;5054687;28;20057;-85
2022/12/05 02:33:49;;;;;;;68.53;35.30;;;;;;;1.74;100.00;101797.13;5054454;28;20056;-84
2022/12/05 02:36:20;;;;;;;62.25;35.17;;;;;;;1.80;100.00;101804.72;5054410;28;20077;-85
2022/12/05 02:38:57;;;;;;;63.83;34.50;;;;;;;1.82;100.00;101804.69;5054147;28;20107;-82
2022/12/05 02:41:35;;;;;;;63.55;34.33;;;;;;;1.82;100.00;101805.53;5054202;28;20113;-76
2022/12/05 02:44:06;;;;;;;61.63;32.60;;;;;;;1.82;100.00;101795.34;5054310;28;20029;-80
2022/12/05 02:46:35;;;;;;;63.42;34.63;;;;;;;1.83;100.00;101803.81;5054504;28;20021;-83
2022/12/05 02:49:08;;;;;;;63.72;34.72;;;;;;;1.80;100.00;101794.53;5054047;28;20025;-84
2022/12/05 02:51:40;;;;;;;61.97;34.58;;;;;;;1.80;100.00;101791.13;5054382;28;20443;-84
2022/12/05 02:54:11;;;;;;;64.95;34.85;;;;;;;1.85;100.00;101805.47;5053906;28;20033;-84
2022/12/05 02:56:37;;;;;;;;;;;;;;;1.89;100.00;101809.69;5054521;28;20040;-85
2022/12/05 02:59:02;;;;;;;63.33;33.70;;;;;;;1.86;100.00;101812.25;5054083;28;19917;-84
2022/12/05 03:01:30;;;;;;;62.25;34.13;;;;;;;1.80;100.00;101799.63;5053834;28;20026;-84
2022/12/05 03:03:58;;;;;;;65.55;35.08;;;;;;;1.73;100.00;101792.91;5053762;28;20025;-84
2022/12/05 03:06:32;;;;;;;63.33;35.40;;;;;;;1.84;100.00;101810.59;5053831;28;20035;-81
2022/12/05 03:09:05;;;;;;;66.13;34.70;;;;;;;1.76;100.00;101800.50;5053661;28;20025;-80
2022/12/05 03:11:40;;;;;;;65.40;34.70;;;;;;;1.83;100.00;101814.00;5053630;28;20043;-82
2022/12/05 03:14:11;;;;;;;69.72;36.00;;;;;;;1.66;100.00;101791.25;5052245;28;20060;-85
2022/12/05 03:16:46;;;;;;;67.85;35.55;;;;;;;1.83;100.00;101814.00;5052797;28;20029;-84
2022/12/05 03:19:19;;;;;;;75.63;35.90;;;;;;;1.72;100.00;101797.16;5053626;28;20533;-80
2022/12/05 03:21:56;;;;;;;70.22;35.88;;;;;;;1.85;100.00;101802.09;5053445;28;20492;-85
2022/12/05 03:24:22;;;;;;;68.95;35.85;;;;;;;1.86;100.00;101803.78;5053294;28;20491;-82
2022/12/05 03:26:50;;;;;;;71.93;36.42;;;;;;;1.85;100.00;101805.47;5053323;28;20030;-83
2022/12/05 03:29:32;;;;;;;68.75;36.83;;;;;;;1.83;100.00;101806.38;5053199;28;20049;-80
2022/12/05 03:32:15;;;;;;;66.57;35.75;;;;;;;1.81;100.00;101796.19;5053501;28;20060;-81
2022/12/05 03:35:03;;;;;;;75.82;37.15;;;;;;;1.83;100.00;101799.56;5053295;28;20053;-82
2022/12/05 03:37:46;;;;;;;66.50;36.03;;;;;;;1.78;100.00;101795.41;5053224;28;20025;-84
2022/12/05 03:40:41;;;;;;;71.32;35.55;;;;;;;1.51;100.00;101755.81;5051745;28;20388;-82
2022/12/05 03:43:34;;;;;;;70.28;36.22;;;;;;;1.78;100.00;101801.34;5053122;28;20029;-82
2022/12/05 03:46:16;;;;;;;69.78;34.13;;;;;;;1.80;100.00;101794.53;5053015;28;20017;-82
2022/12/05 03:49:09;;;;;;;69.43;35.63;;;;;;;1.83;100.00;101802.13;5053003;28;20028;-84
2022/12/05 03:51:44;;;;;;;68.60;35.15;;;;;;;1.73;100.00;101792.91;5053336;28;20151;-75
2022/12/05 03:54:17;;;;;;;66.28;34.28;;;;;;;1.82;100.00;101804.69;5052989;28;20028;-80
2022/12/05 03:56:47;;;;;;;64.82;35.17;;;;;;;1.79;100.00;101792.84;5051598;28;20388;-77
2022/12/05 03:59:31;;;;;;;70.97;36.50;;;;;;;1.80;100.00;101804.72;5052874;28;20127;-75
2022/12/05 04:02:00;;;;;;;67.20;34.25;;;;;;;1.78;100.00;101803.88;5053000;28;20029;-80
2022/12/05 04:04:36;;;;;;;71.18;34.85;;;;;;;1.62;100.00;101780.28;5053107;28;20025;-77
2022/12/05 04:07:06;;;;;;;67.18;33.80;;;;;;;1.67;100.00;101793.81;5052836;28;20059;-80
2022/12/05 04:09:42;;;;;;;69.22;35.47;;;;;;;1.40;100.00;101746.59;5052947;28;20021;-76
2022/12/05 04:12:16;;;;;;;67.80;34.42;;;;;;;1.76;100.00;101803.03;5052705;28;20075;-77
2022/12/05 04:14:47;;;;;;;69.55;35.75;;;;;;;1.76;100.00;101812.38;5052764;28;20457;-78
2022/12/05 04:17:44;;;;;;;68.88;36.17;;;;;;;1.62;100.00;101789.63;5052938;28;20040;-83
2022/12/05 04:23:00;;;;;;;65.95;34.83;;;;;;;1.63;100.00;101801.50;5052989;28;20086;-75
2022/12/05 04:25:35;;;;;;;69.75;34.80;;;;;;;1.73;100.00;101811.56;5052381;28;20021;-76
2022/12/05 04:28:19;;;;;;;76.55;35.35;;;;;;;1.74;100.00;101817.50;5052856;28;20096;-77
2022/12/05 04:31:02;;;;;;;71.28;36.03;;;;;;;1.75;100.00;101816.63;5056885;28;20029;-78
2022/12/05 04:33:55;;;;;;;73.47;36.25;;;;;;;1.76;100.00;101820.03;5056844;28;20084;-79
2022/12/05 04:36:32;;;;;;;73.10;35.83;;;;;;;1.77;100.00;101816.59;5054864;28;20116;-79
2022/12/05 04:39:09;;;;;;;71.85;35.25;;;;;;;1.78;100.00;101813.22;5056678;28;20028;-82
2022/12/05 04:41:39;;;;;;;76.00;37.08;;;;;;;1.78;100.00;101819.16;5055145;28;20423;-81
2022/12/05 04:44:12;;;;;;;70.60;34.70;;;;;;;1.79;100.00;101820.00;5056419;28;20041;-81
2022/12/05 04:46:40;;;;;;;71.82;36.60;;;;;;;1.82;100.00;101825.91;5056508;28;20044;-81
2022/12/05 04:49:08;;;;;;;72.07;35.78;;;;;;;1.83;100.00;101831.84;5056602;28;20017;-78
2022/12/05 04:51:37;;;;;;;67.03;36.15;;;;;;;1.63;100.00;101796.41;5056588;28;20031;-81
2022/12/05 04:54:20;;;;;;;72.75;35.90;;;;;;;1.86;100.00;101830.09;5056267;28;20102;-81
2022/12/05 04:56:49;;;;;;;68.15;34.40;;;;;;;1.87;100.00;101825.84;5056034;28;20104;-80
2022/12/05 04:59:14;;;;;;;72.90;35.92;;;;;;;1.79;100.00;101818.31;5056351;28;20025;-84
2022/12/05 05:01:49;;;;;;;72.40;35.33;;;;;;;1.86;100.00;101822.44;5056274;28;20543;-85
2022/12/05 05:04:30;;;;;;;68.72;35.47;;;;;;;1.76;100.00;101799.66;5056252;28;20468;-82
2022/12/05 05:06:55;;;;;;;67.82;35.05;;;;;;;1.78;100.00;101805.59;5056264;28;20029;-84
2022/12/05 05:09:21;;;;;;;65.05;32.10;;;;;;;1.85;100.00;101818.22;5054620;28;20506;-85
2022/12/05 05:11:46;;;;;;;71.22;35.97;;;;;;;1.83;100.00;101819.94;5055948;28;20031;-85
2022/12/05 05:14:11;;;;;;;73.22;36.40;;;;;;;1.78;100.00;101808.13;5055920;28;20033;-85
2022/12/05 05:16:40;;;;;;;65.28;32.97;;;;;;;1.78;100.00;101816.63;5054940;28;20060;-84
2022/12/05 05:19:06;;;;;;;71.05;33.83;;;;;;;1.53;100.00;101780.38;5056160;28;20028;-81
2022/12/05 05:21:34;;;;;;;71.78;35.78;;;;;;;1.52;100.00;101778.69;5055724;28;20179;-83
2022/12/05 05:24:00;;;;;;;70.85;35.20;;;;;;;1.56;100.00;101792.22;5055941;28;20090;-83
2022/12/05 05:26:27;;;;;;;71.55;35.63;;;;;;;1.69;100.00;101812.47;5055874;28;20103;-84
2022/12/05 05:28:53;;;;;;;69.07;33.47;;;;;;;1.80;100.00;101829.34;5055506;28;20029;-85
2022/12/05 05:31:19;;;;;;;67.20;34.70;;;;;;;1.65;100.00;101810.78;5055887;28;20028;-84
2022/12/05 05:33:49;;;;;;;70.70;34.60;;;;;;;1.81;100.00;101836.09;5055953;28;20021;-80
2022/12/05 05:36:15;;;;;;;69.93;34.53;;;;;;;1.83;100.00;101829.28;5055550;28;20036;-81
2022/12/05 05:38:45;;;;;;;69.30;34.50;;;;;;;1.68;100.00;101809.94;5055695;28;20423;-83
2022/12/05 05:41:19;;;;;;;68.90;34.42;;;;;;;1.77;100.00;101817.47;5054553;28;20032;-85
2022/12/05 05:43:45;;;;;;;66.18;34.22;;;;;;;1.88;100.00;101830.94;5055190;28;20032;-85
2022/12/05 05:46:12;;;;;;;64.78;33.05;;;;;;;1.88;100.00;101830.09;5055749;28;20016;-83
2022/12/05 05:48:37;;;;;;;67.93;33.45;;;;;;;1.81;100.00;101813.19;5055652;28;20388;-82
2022/12/05 05:51:05;;;;;;;62.70;32.28;;;;;;;1.93;100.00;101829.16;5055412;28;20025;-84
2022/12/05 05:53:30;;;;;;;62.90;32.85;;;;;;;1.94;100.00;101833.41;5055491;28;20032;-85
2022/12/05 05:55:56;;;;;;;63.17;32.80;;;;;;;1.95;100.00;101835.09;5055346;28;20033;-83
2022/12/05 05:58:21;;;;;;;61.97;31.92;;;;;;;1.98;100.00;101834.22;5054966;28;20021;-85
2022/12/05 06:00:47;;;;;;;60.47;32.05;;;;;;;1.92;100.00;101822.41;5055423;28;20025;-85
2022/12/05 06:03:12;;;;;;;59.20;31.98;;;;;;;1.94;100.00;101828.31;5053475;28;20052;-77
2022/12/05 06:05:37;;;;;;;59.83;32.63;;;;;;;2.01;100.00;101831.63;5055507;28;20029;-85
2022/12/05 06:08:03;;;;;;;64.20;32.15;;;;;;;1.87;100.00;101815.66;5055336;28;20033;-85
2022/12/05 06:10:29;;;;;;;57.58;30.88;;;;;;;1.99;100.00;101831.66;5055200;28;20020;-85
2022/12/05 06:12:55;;;;;;;60.45;30.85;;;;;;;1.78;100.00;101800.50;5054842;28;20021;-85
2022/12/05 06:15:20;;;;;;;56.58;31.08;;;;;;;1.99;100.00;101834.22;5054780;28;20040;-85
2022/12/05 06:17:46;;;;;;;57.60;30.42;;;;;;;2.01;100.00;101844.38;5054723;28;20071;-83
2022/12/05 06:20:11;;;;;;;57.60;31.00;;;;;;;2.03;100.00;101845.19;5054945;28;20039;-85
2022/12/05 06:22:37;;;;;;;58.00;30.92;;;;;;;2.04;100.00;101844.31;5055062;28;20051;-85
2022/12/05 06:25:02;;;;;;;55.10;30.13;;;;;;;2.03;100.00;101849.44;5055116;28;20045;-85
2022/12/05 06:27:30;;;;;;;61.42;31.15;;;;;;;2.04;100.00;101851.97;5054721;28;20024;-85
2022/12/05 06:29:55;;;;;;;54.15;30.25;;;;;;;2.03;100.00;101849.44;5054428;28;20021;-85
2022/12/05 06:32:20;;;;;;;58.45;31.20;;;;;;;2.03;100.00;101854.53;5054752;28;20032;-82
2022/12/05 06:34:46;;;;;;;57.67;30.30;;;;;;;2.05;100.00;101853.66;5054566;28;20021;-85
2022/12/05 06:37:11;;;;;;;55.58;30.70;;;;;;;1.99;100.00;101846.94;5054482;28;20021;-85
2022/12/05 06:39:37;;;;;;;58.30;30.08;;;;;;;2.09;100.00;101859.56;5054665;28;20043;-85
2022/12/05 06:42:02;;;;;;;58.25;30.95;;;;;;;2.10;100.00;101863.81;5054565;28;20381;-85
2022/12/05 06:44:28;;;;;;;60.50;31.42;;;;;;;2.10;100.00;101858.72;5054173;28;20029;-86
2022/12/05 06:46:54;;;;;;;56.47;29.98;;;;;;;2.09;100.00;101857.03;5054396;28;20033;-86
2022/12/05 06:49:20;;;;;;;55.10;29.90;;;;;;;2.09;100.00;101857.03;5054185;28;20469;-84
2022/12/05 06:51:45;;;;;;;57.20;31.17;;;;;;;2.10;100.00;101853.63;5054252;28;20029;-86
2022/12/05 06:54:12;;;;;;;57.80;30.35;;;;;;;2.09;100.00;101847.69;5054225;28;20388;-88
2022/12/05 06:56:39;;;;;;;57.70;30.30;;;;;;;2.03;100.00;101839.25;5054322;28;20044;-91
2022/12/05 06:59:05;;;;;;;54.40;30.20;;;;;;;2.07;100.00;101849.41;5053971;28;20099;-88
2022/12/05 07:01:45;;;;;;;53.47;28.92;;;;;;;2.14;100.00;101857.81;5054136;28;20553;-88
2022/12/05 07:04:15;;;;;;;55.55;29.67;;;;;;;2.15;100.00;101864.59;5054017;28;20021;-89
2022/12/05 07:06:43;;;;;;;52.38;29.20;;;;;;;2.10;100.00;101858.72;5054213;28;20025;-89
2022/12/05 07:09:08;;;;;;;51.97;29.05;;;;;;;2.14;100.00;101870.53;5053969;28;20449;-86
2022/12/05 07:11:34;;;;;;;55.35;28.25;;;;;;;2.06;100.00;101847.69;5053819;28;20036;-81
2022/12/05 07:14:00;;;;;;;51.95;28.13;;;;;;;2.16;100.00;101874.75;5053568;28;20035;-88
2022/12/05 07:16:25;;;;;;;52.83;28.83;;;;;;;2.17;100.00;101873.94;5053883;28;20056;-87
2022/12/05 07:18:50;;;;;;;50.72;28.08;;;;;;;2.19;100.00;101876.44;5053940;28;20075;-89
2022/12/05 07:21:16;;;;;;;50.70;27.67;;;;;;;2.18;100.00;101878.16;5053869;28;20476;-78
2022/12/05 07:23:43;;;;;;;48.80;27.08;;;;;;;2.20;100.00;101885.78;5053767;28;20056;-83
2022/12/05 07:26:13;;;;;;;52.17;28.50;;;;;;;2.22;100.00;101882.34;5053616;28;20021;-87
2022/12/05 07:28:39;;;;;;;57.40;29.23;;;;;;;2.25;100.00;101884.84;5053413;28;20029;-86
2022/12/05 07:31:07;;;;;;;50.35;28.20;;;;;;;2.15;100.00;101873.06;5051366;28;20028;-85
2022/12/05 07:33:33;;;;;;;51.58;27.20;;;;;;;2.18;100.00;101867.97;5053538;28;20096;-81
2022/12/05 07:36:19;;;;;;;56.40;29.15;;;;;;;2.36;100.00;101888.97;5053410;28;20039;-84
2022/12/05 07:38:45;;;;;;;50.63;27.95;;;;;;;2.36;100.00;101883.88;5070408;28;20111;-81
2022/12/05 07:41:21;;;;;;;47.63;28.55;;;;;;;2.40;100.00;101893.19;5073336;28;20451;-84
2022/12/05 07:43:46;;;;;;;51.47;27.17;;;;;;;2.43;100.00;101888.03;5073675;28;20032;-86
2022/12/05 07:46:12;;;;;;;50.10;27.48;;;;;;;2.43;100.00;101893.97;5073308;28;20518;-85
2022/12/05 07:48:38;;;;;;;51.28;26.05;;;;;;;2.43;100.00;101891.44;5073372;28;20059;-82
2022/12/05 07:51:05;;;;;;;51.70;26.92;;;;;;;2.32;100.00;101874.59;5071704;28;20472;-82
2022/12/05 07:53:32;;;;;;;49.85;27.27;;;;;;;2.45;100.00;101892.25;5073273;28;20021;-84
2022/12/05 07:55:59;;;;;;;44.78;25.42;;;;;;;2.48;100.00;101901.59;5072904;28;20484;-85
2022/12/05 07:58:25;;;;;;;48.63;26.77;;;;;;;2.50;100.00;101894.75;5073526;28;20029;-86
2022/12/05 08:00:50;;;;;;;47.70;26.65;;;;;;;2.52;100.00;101904.06;5073010;28;20495;-85
2022/12/05 08:03:16;;;;;;;49.85;26.52;;;;;;;2.42;100.00;101878.72;5072540;28;20483;-84
2022/12/05 08:05:42;;;;;;;48.67;27.20;;;;;;;2.56;100.00;101904.91;5073151;28;20067;-77
2022/12/05 08:08:07;;;;;;;48.10;27.02;;;;;;;2.54;100.00;101896.41;5073354;28;20021;-84
2022/12/05 08:10:34;;;;;;;47.65;26.85;;;;;;;2.57;100.00;101912.53;5072906;28;20079;-85
2022/12/05 08:12:59;;;;;;;48.90;26.77;;;;;;;2.60;100.00;101916.72;5073082;28;20171;-83
2022/12/05 08:15:24;;;;;;;46.28;25.73;;;;;;;2.59;100.00;101921.00;5072897;28;20111;-84
2022/12/05 08:17:49;;;;;;;47.80;26.13;;;;;;;2.52;100.00;101898.13;5073097;28;20029;-85
2022/12/05 08:20:15;;;;;;;46.35;26.20;;;;;;;2.62;100.00;101916.72;5072841;28;20480;-82
2022/12/05 08:22:40;;;;;;;47.45;26.45;;;;;;;2.65;100.00;101921.75;5072972;28;20033;-82
2022/12/05 08:25:06;;;;;;;48.58;26.65;;;;;;;2.67;100.00;101922.59;5072882;28;20020;-82
2022/12/05 08:27:31;;;;;;;49.55;25.33;;;;;;;2.55;100.00;101905.72;5072901;28;20554;-82
2022/12/05 08:29:56;;;;;;;48.17;25.63;;;;;;;2.65;100.00;101924.31;5072705;28;20032;-82
2022/12/05 08:32:22;;;;;;;51.40;27.45;;;;;;;2.60;100.00;101919.28;5072901;28;20070;-83
2022/12/05 08:34:47;;;;;;;45.35;25.75;;;;;;;2.70;100.00;101932.75;5072850;28;20020;-83
2022/12/05 08:37:12;;;;;;;48.15;26.27;;;;;;;2.72;100.00;101933.59;5054949;28;20032;-81
2022/12/05 08:39:38;;;;;;;48.47;26.67;;;;;;;2.74;100.00;101929.28;5072792;28;20078;-82
2022/12/05 08:42:03;;;;;;;50.28;27.27;;;;;;;2.80;100.00;101941.97;5072700;28;20437;-82
2022/12/05 08:44:29;;;;;;;49.25;27.00;;;;;;;2.83;100.00;101944.47;5071488;28;20025;-82
2022/12/05 08:46:54;;;;;;;50.55;27.33;;;;;;;2.67;100.00;101908.16;5072570;28;20059;-82
2022/12/05 08:49:20;;;;;;;48.35;25.83;;;;;;;2.68;100.00;101906.44;5073078;28;20391;-80
2022/12/05 08:51:45;;;;;;;47.35;26.02;;;;;;;2.82;100.00;101936.00;5071368;28;20112;-80
2022/12/05 08:54:11;;;;;;;50.15;26.85;;;;;;;2.86;100.00;101939.38;5071326;28;20024;-80
2022/12/05 08:56:37;;;;;;;48.78;27.77;;;;;;;2.61;100.00;101895.47;5072862;28;20507;-81
2022/12/05 08:59:03;;;;;;;48.70;27.30;;;;;;;2.88;100.00;101943.56;5071309;28;20056;-74
2022/12/05 09:01:30;;;;;;;51.83;27.38;;;;;;;2.76;100.00;101918.22;5072672;28;20021;-77
2022/12/05 09:04:00;;;;;;;49.10;28.30;;;;;;;2.88;100.00;101933.38;5072612;28;20024;-82
2022/12/05 09:06:27;;;;;;;51.83;27.52;;;;;;;3.01;100.00;101949.34;5072563;28;20033;-81
2022/12/05 09:08:55;;;;;;;50.08;27.00;;;;;;;2.93;100.00;101933.28;5072561;28;20044;-82
2022/12/05 09:11:23;;;;;;;48.88;27.08;;;;;;;3.02;100.00;101956.13;5072491;28;20478;-84
2022/12/05 09:13:50;;;;;;;50.97;27.55;;;;;;;2.90;100.00;101930.78;5072679;28;20052;-83
2022/12/05 09:16:24;;;;;;;47.22;27.45;;;;;;;3.05;100.00;101961.22;5075970;28;20024;-81
2022/12/05 09:18:50;;;;;;;45.97;25.58;;;;;;;3.04;100.00;101958.66;5061941;28;20124;-81
2022/12/05 09:21:21;;;;;;;46.72;26.63;;;;;;;2.99;100.00;101950.25;5054348;28;20072;-81
2022/12/05 09:23:47;;;;;;;48.83;26.73;;;;;;;2.86;100.00;101934.25;5052758;28;20144;-80
2022/12/05 09:26:15;;;;;;;45.53;25.35;;;;;;;3.04;100.00;101964.59;5054879;28;20009;-83
2022/12/05 09:28:42;;;;;;;45.28;26.10;;;;;;;2.94;100.00;101945.19;5054496;28;20025;-83
2022/12/05 09:31:14;;;;;;;47.38;26.52;;;;;;;3.05;100.00;101971.44;5054274;28;20025;-81
2022/12/05 09:33:40;;;;;;;47.30;26.17;;;;;;;3.03;100.00;101972.28;5054586;28;20043;-81
2022/12/05 09:36:27;;;;;;;44.58;26.63;;;;;;;2.98;100.00;101961.31;5054421;28;20380;-81
2022/12/05 09:38:53;;;;;;;44.42;25.73;;;;;;;3.04;100.00;101976.53;5053720;28;20032;-80
2022/12/05 09:44:22;;;;;;;46.47;26.23;;;;;;;3.09;100.00;101974.78;5055496;28;20044;-79
2022/12/05 09:46:48;;;;;;;46.22;25.48;;;;;;;3.13;100.00;101978.94;5055229;28;20490;-81
2022/12/05 09:49:13;;;;;;;42.42;24.83;;;;;;;3.05;100.00;101960.38;5055287;28;20100;-81
2022/12/05 09:51:43;;;;;;;40.80;23.67;;;;;;;3.11;100.00;101967.94;5055769;28;20108;-82
2022/12/05 09:54:11;;;;;;;41.17;24.67;;;;;;;3.11;100.00;101973.03;5055247;28;20480;-81
2022/12/05 09:56:37;;;;;;;40.97;23.80;;;;;;;3.19;100.00;101972.94;5058480;28;20017;-80
2022/12/05 09:59:04;;;;;;;40.17;23.40;;;;;;;3.10;100.00;101963.69;5075483;28;20063;-81
2022/12/05 10:01:40;;;;;;;42.72;24.10;;;;;;;3.23;100.00;101984.78;5075504;28;20021;-82
2022/12/05 10:04:28;;;;;;;35.13;21.23;;;;;;;3.24;100.00;101987.31;5073686;28;20148;-80
2022/12/05 10:07:11;;;;;;;35.90;20.30;;;;;;;3.25;100.00;101985.63;5075206;28;20153;-79
2022/12/05 10:10:12;;;;;;;34.53;21.27;;;;;;;3.26;100.00;101988.16;5075168;28;20036;-81
2022/12/05 10:13:25;;;;;;;37.22;21.60;;;;;;;3.31;100.00;101982.97;5013187;28;20105;-80
2022/12/05 10:15:53;;;;;;;34.50;19.55;;;;;;;3.15;100.00;101965.31;4974357;28;20047;-80
2022/12/05 10:18:49;;;;;;;28.35;17.35;;;;;;;3.07;100.00;101944.16;4973822;28;20117;-81
2022/12/05 10:21:29;;;;;;;27.38;17.13;;;;;;;3.28;100.00;101983.84;4973962;28;20457;-81
2022/12/05 10:24:00;;;;;;;26.38;16.92;;;;;;;3.27;100.00;101982.16;4973965;28;20035;-81
2022/12/05 10:26:42;;;;;;;29.42;17.98;;;;;;;3.16;100.00;101964.47;4973685;28;20058;-81
2022/12/05 10:29:27;;;;;;;24.77;15.77;;;;;;;3.25;100.00;101980.50;4965895;28;20031;-77
2022/12/05 10:32:01;;;;;;;24.60;16.38;;;;;;;3.22;100.00;101980.53;4934949;29;20513;-81
2022/12/05 10:34:36;;;;;;;24.05;15.80;;;;;;;3.00;100.00;101940.00;4935075;29;20106;-80
2022/12/05 10:37:10;;;;;;;25.05;15.98;;;;;;;3.28;100.00;101990.66;4935274;29;20046;-82
2022/12/05 10:39:37;;;;;;;25.00;15.93;;;;;;;3.26;100.00;101988.16;4935183;29;20056;-80
2022/12/05 10:42:03;;;;;;;24.85;16.27;;;;;;;3.14;100.00;101970.44;4935328;29;20036;-81
2022/12/05 10:44:30;;;;;;;24.75;16.45;;;;;;;3.28;100.00;101990.66;4935342;29;20031;-82
2022/12/05 10:46:56;;;;;;;26.08;15.73;;;;;;;3.13;100.00;101955.97;4935092;29;20043;-84
2022/12/05 10:49:22;;;;;;;27.23;16.70;;;;;;;3.35;100.00;101992.28;4949973;28;20467;-85
2022/12/05 10:51:48;;;;;;;22.70;14.90;;;;;;;3.32;100.00;101989.75;4993219;28;20038;-85
2022/12/05 10:54:39;;;;;;;23.70;15.02;;;;;;;3.33;100.00;101982.06;5034305;28;20032;-82
2022/12/05 10:57:21;;;;;;;24.05;15.35;;;;;;;3.35;100.00;101982.06;5034390;28;20021;-85
2022/12/05 10:59:47;;;;;;;25.83;15.90;;;;;;;3.38;100.00;101984.56;5034216;28;20044;-84
2022/12/05 11:02:32;;;;;;;22.52;14.95;;;;;;;3.24;100.00;101946.47;5034130;28;20021;-85
2022/12/05 11:04:57;;;;;;;22.52;14.65;;;;;;;3.34;100.00;101954.81;5033781;28;20041;-85
2022/12/05 11:07:42;;;;;;;23.80;14.95;;;;;;;3.44;100.00;101957.25;5034166;28;20100;-83
2022/12/05 11:10:24;;;;;;;23.85;14.88;;;;;;;3.43;100.00;101955.53;5034228;28;20163;-82
2022/12/05 11:12:50;;;;;;;23.52;14.35;;;;;;;3.39;100.00;101951.34;5033682;28;20055;-86
2022/12/05 11:15:15;;;;;;;21.75;13.82;;;;;;;3.49;100.00;101976.75;5033814;28;20033;-83
2022/12/05 11:17:45;;;;;;;23.15;14.60;;;;;;;3.37;100.00;101949.69;5033926;28;20035;-85
2022/12/05 11:20:16;;;;;;;22.17;15.13;;;;;;;3.48;100.00;101968.25;5032075;28;20109;-84
2022/12/05 11:22:42;;;;;;;21.98;13.68;;;;;;;3.33;100.00;101937.81;5033934;28;20022;-85
2022/12/05 11:25:28;;;;;;;22.25;14.02;;;;;;;3.36;100.00;101946.31;5033739;28;20021;-86
2022/12/05 11:27:55;;;;;;;21.63;12.88;;;;;;;3.32;100.00;101946.34;5033150;28;20382;-84
2022/12/05 11:30:24;;;;;;;21.27;13.43;;;;;;;2.75;100.00;101846.81;5033623;28;20041;-83